Time;durP1;ratioP1;P1;durP2;ratioP2;P2;SDS_P1;SDS_P2;PMS_P1;PMS_P2;Temp;Humidity;BMP_temperature;BMP_pressure;BME280_temperature;BME280_humidity;BME280_pressure;Samples;Min_cycle;Max_cycle;Signal;HPM_P1;HPM_P2
2024/04/04 00:00:00;;;;;;;;;;;10.20;99.90;;;;;;4917023;29;19931;-64
2024/04/04 00:02:26;;;;;;;;;;;10.20;99.90;;;;;;4914515;29;19985;-64
2024/04/04 00:05:02;;;;;;;;;;;10.20;99.90;;;;;;4929944;29;19939;-64
2024/04/04 00:07:28;;;;;;;;;;;10.20;99.90;;;;;;4907509;29;19935;-64
2024/04/04 00:09:53;;;;;;;;;;;10.20;99.90;;;;;;4897255;29;19950;-64
2024/04/04 00:12:20;;;;;;;;;;;10.30;99.90;;;;;;4916619;29;19927;-64
2024/04/04 00:14:46;;;;;;;;;;;10.20;99.90;;;;;;4921991;29;19986;-64
2024/04/04 00:17:12;;;;;;;;;;;10.30;99.90;;;;;;4916742;29;19927;-64
2024/04/04 00:19:38;;;;;;;;;;;10.20;99.90;;;;;;4918018;29;19941;-64
2024/04/04 00:22:05;;;;;;;;;;;10.20;99.90;;;;;;4919879;29;20303;-64
2024/04/04 00:24:31;;;;;;;;;;;10.20;99.90;;;;;;4918752;29;19942;-64
2024/04/04 00:26:57;;;;;;;;;;;10.20;99.90;;;;;;4912654;29;19926;-64
2024/04/04 00:29:23;;;;;;;;;;;10.10;99.90;;;;;;4909714;29;20014;-64
2024/04/04 00:31:49;;;;;;;;;;;10.20;99.90;;;;;;4920701;29;19942;-64
2024/04/04 00:34:15;;;;;;;;;;;10.10;99.90;;;;;;4916518;29;19927;-64
2024/04/04 00:36:41;;;;;;;;;;;10.10;99.90;;;;;;4929722;29;19985;-64
2024/04/04 00:39:07;;;;;;;;;;;10.20;99.90;;;;;;4913285;29;19935;-64
2024/04/04 00:41:33;;;;;;;;;;;10.20;99.90;;;;;;4899348;29;20014;-64
2024/04/04 00:43:59;;;;;;;;;;;10.10;99.90;;;;;;4911736;29;19939;-64
2024/04/04 00:46:25;;;;;;;;;;;10.10;99.90;;;;;;4902587;29;20367;-64
2024/04/04 00:48:52;;;;;;;;;;;10.10;99.90;;;;;;4928992;29;19930;-64
2024/04/04 00:51:18;;;;;;;;;;;10.10;99.90;;;;;;4920486;29;19926;-64
2024/04/04 00:53:43;;;;;;;;;;;10.10;99.90;;;;;;4926865;29;19933;-64
2024/04/04 00:56:10;;;;;;;;;;;10.10;99.90;;;;;;4926801;29;20503;-64
2024/04/04 00:58:35;;;;;;;;;;;10.00;99.90;;;;;;4924267;29;20023;-64
2024/04/04 01:01:01;;;;;;;;;;;10.10;99.90;;;;;;4927685;29;20041;-64
2024/04/04 01:03:27;;;;;;;;;;;10.10;99.90;;;;;;4938958;29;19982;-64
2024/04/04 01:05:53;;;;;;;;;;;10.00;99.90;;;;;;4917343;29;19931;-64
2024/04/04 01:08:20;;;;;;;;;;;10.10;99.90;;;;;;4902991;29;19937;-64
2024/04/04 01:10:45;;;;;;;;;;;10.00;99.90;;;;;;4920238;29;19931;-64
2024/04/04 01:13:11;;;;;;;;;;;10.00;99.90;;;;;;4915108;29;19927;-64
2024/04/04 01:15:37;;;;;;;;;;;9.90;99.90;;;;;;4919849;29;20039;-64
2024/04/04 01:18:03;;;;;;;;;;;10.00;99.90;;;;;;4915301;29;20473;-64
2024/04/04 01:20:29;;;;;;;;;;;10.00;99.90;;;;;;4913289;29;19930;-64
2024/04/04 01:22:55;;;;;;;;;;;10.00;99.90;;;;;;4919630;29;19930;-64
2024/04/04 01:25:21;;;;;;;;;;;9.90;99.90;;;;;;4909219;29;19938;-64
2024/04/04 01:27:49;;;;;;;;;;;10.00;99.90;;;;;;4916662;29;19927;-64
2024/04/04 01:30:16;;;;;;;;;;;10.00;99.90;;;;;;4917156;29;20295;-64
2024/04/04 01:32:42;;;;;;;;;;;10.00;99.90;;;;;;4901716;29;19931;-64
2024/04/04 01:35:07;;;;;;;;;;;10.00;99.90;;;;;;4926939;29;19994;-64
2024/04/04 01:37:33;;;;;;;;;;;10.00;99.90;;;;;;4914172;29;20017;-64
2024/04/04 01:39:59;;;;;;;;;;;10.00;99.90;;;;;;4911594;29;19991;-64
2024/04/04 01:42:25;;;;;;;;;;;10.00;99.90;;;;;;4917508;29;20316;-64
2024/04/04 01:44:51;;;;;;;;;;;10.10;99.90;;;;;;4918701;29;20495;-64
2024/04/04 01:47:17;;;;;;;;;;;10.10;99.90;;;;;;4918158;29;19935;-65
2024/04/04 01:49:44;;;;;;;;;;;10.10;99.90;;;;;;4918219;29;20391;-64
2024/04/04 01:52:10;;;;;;;;;;;10.20;99.90;;;;;;4929065;29;19931;-64
2024/04/04 01:54:35;;;;;;;;;;;10.20;99.90;;;;;;4916278;29;19927;-64
2024/04/04 01:57:01;;;;;;;;;;;10.30;99.90;;;;;;4918580;29;20000;-64
2024/04/04 01:59:27;;;;;;;;;;;10.30;99.90;;;;;;4910211;29;19973;-64
2024/04/04 02:01:53;;;;;;;;;;;10.30;99.90;;;;;;4917058;29;19927;-64
2024/04/04 02:04:19;;;;;;;;;;;10.30;99.90;;;;;;4934687;29;19931;-65
2024/04/04 02:06:45;;;;;;;;;;;10.30;99.90;;;;;;4922466;29;20392;-64
2024/04/04 02:09:12;;;;;;;;;;;10.40;99.90;;;;;;4913407;29;19931;-64
2024/04/04 02:11:38;;;;;;;;;;;10.40;99.90;;;;;;4916675;29;19927;-64
2024/04/04 02:14:04;;;;;;;;;;;10.40;99.90;;;;;;4912815;29;19931;-64
2024/04/04 02:16:30;;;;;;;;;;;10.40;99.90;;;;;;4919443;29;19935;-64
2024/04/04 02:18:56;;;;;;;;;;;10.40;99.90;;;;;;4912466;29;20009;-64
2024/04/04 02:21:21;;;;;;;;;;;10.40;99.90;;;;;;4928262;29;19931;-64
2024/04/04 02:23:47;;;;;;;;;;;10.40;99.90;;;;;;4916594;29;19931;-64
2024/04/04 02:26:13;;;;;;;;;;;10.40;99.90;;;;;;4919253;29;19942;-64
2024/04/04 02:28:39;;;;;;;;;;;10.40;99.90;;;;;;4895576;29;19931;-65
2024/04/04 02:31:05;;;;;;;;;;;10.40;99.90;;;;;;4930085;29;19927;-64
2024/04/04 02:33:31;;;;;;;;;;;10.50;99.90;;;;;;4909001;29;19942;-64
2024/04/04 02:35:57;;;;;;;;;;;10.40;99.90;;;;;;4911419;29;20396;-64
2024/04/04 02:38:24;;;;;;;;;;;10.40;99.90;;;;;;4919224;29;20403;-65
2024/04/04 02:40:50;;;;;;;;;;;10.40;99.90;;;;;;4917345;29;19931;-64
2024/04/04 02:43:16;;;;;;;;;;;10.40;99.90;;;;;;4933700;29;19933;-64
2024/04/04 02:45:42;;;;;;;;;;;10.20;99.90;;;;;;4906150;29;19931;-64
2024/04/04 02:48:08;;;;;;;;;;;10.20;99.90;;;;;;4944941;29;19930;-64
2024/04/04 02:50:34;;;;;;;;;;;10.20;99.90;;;;;;4905616;29;19931;-65
2024/04/04 02:53:00;;;;;;;;;;;10.20;99.90;;;;;;4919180;29;19961;-65
2024/04/04 02:55:27;;;;;;;;;;;10.20;99.90;;;;;;4919339;29;20528;-64
2024/04/04 02:57:52;;;;;;;;;;;10.10;99.90;;;;;;4922934;29;19927;-64
2024/04/04 03:00:19;;;;;;;;;;;10.20;99.90;;;;;;4917675;29;20015;-64
2024/04/04 03:02:45;;;;;;;;;;;10.20;99.90;;;;;;4911337;29;19931;-64
2024/04/04 03:05:11;;;;;;;;;;;10.20;99.90;;;;;;4903108;29;19989;-64
2024/04/04 03:07:37;;;;;;;;;;;10.20;99.90;;;;;;4920367;29;20348;-64
2024/04/04 03:10:03;;;;;;;;;;;10.30;99.90;;;;;;4903373;29;19935;-64
2024/04/04 03:12:29;;;;;;;;;;;10.30;99.90;;;;;;4903769;29;19993;-64
2024/04/04 03:14:55;;;;;;;;;;;10.30;99.90;;;;;;4918605;29;20054;-64
2024/04/04 03:17:21;;;;;;;;;;;10.30;99.90;;;;;;4919511;29;20351;-64
2024/04/04 03:19:47;;;;;;;;;;;10.20;99.90;;;;;;4921087;29;20610;-64
2024/04/04 03:22:12;;;;;;;;;;;10.30;99.90;;;;;;4902935;29;19938;-64
2024/04/04 03:24:39;;;;;;;;;;;10.20;99.90;;;;;;4923735;29;19930;-64
2024/04/04 03:27:06;;;;;;;;;;;10.20;99.90;;;;;;4932852;29;19935;-64
2024/04/04 03:29:31;;;;;;;;;;;10.20;99.90;;;;;;4926032;29;19931;-64
2024/04/04 03:31:57;;;;;;;;;;;10.20;99.90;;;;;;4911764;29;19928;-64
2024/04/04 03:34:23;;;;;;;;;;;10.20;99.90;;;;;;4914384;29;20399;-64
2024/04/04 03:36:49;;;;;;;;;;;10.30;99.90;;;;;;4907188;29;19937;-66
2024/04/04 03:39:15;;;;;;;;;;;10.20;99.90;;;;;;4903498;29;19931;-64
2024/04/04 03:41:41;;;;;;;;;;;10.20;99.90;;;;;;4901972;29;19954;-64
2024/04/04 03:44:08;;;;;;;;;;;10.20;99.90;;;;;;4921881;29;19927;-64
2024/04/04 03:46:34;;;;;;;;;;;10.20;99.90;;;;;;4916995;29;19930;-64
2024/04/04 03:49:00;;;;;;;;;;;10.20;99.90;;;;;;4916843;29;19931;-64
2024/04/04 03:51:26;;;;;;;;;;;10.20;99.90;;;;;;4927740;29;19934;-64
2024/04/04 03:53:53;;;;;;;;;;;10.20;99.90;;;;;;4916485;29;19926;-65
2024/04/04 03:56:18;;;;;;;;;;;10.10;99.90;;;;;;4917060;29;19950;-65
2024/04/04 03:58:44;;;;;;;;;;;10.20;99.90;;;;;;4909690;29;19931;-64
2024/04/04 04:01:10;;;;;;;;;;;10.10;99.90;;;;;;4899283;29;19931;-64
2024/04/04 04:03:36;;;;;;;;;;;10.10;99.90;;;;;;4916533;29;19926;-64
2024/04/04 04:06:03;;;;;;;;;;;10.10;99.90;;;;;;4913883;29;20054;-64
2024/04/04 04:08:28;;;;;;;;;;;10.20;99.90;;;;;;4910281;29;20478;-64
2024/04/04 04:10:54;;;;;;;;;;;10.10;99.90;;;;;;4914982;29;20043;-64
2024/04/04 04:13:20;;;;;;;;;;;10.10;99.90;;;;;;4930309;29;19927;-64
2024/04/04 04:16:01;;;;;;;;;;;10.10;99.90;;;;;;4899779;29;19931;-64
2024/04/04 04:18:27;;;;;;;;;;;10.10;99.90;;;;;;4928838;29;19927;-64
2024/04/04 04:23:37;;;;;;;;;;;10.00;99.90;;;;;;4915941;29;19927;-64
2024/04/04 04:26:03;;;;;;;;;;;10.00;99.90;;;;;;4909409;29;20033;-64
2024/04/04 04:28:29;;;;;;;;;;;10.00;99.90;;;;;;4916483;29;19931;-64
2024/04/04 04:30:54;;;;;;;;;;;10.00;99.90;;;;;;4905923;29;19934;-64
2024/04/04 04:33:20;;;;;;;;;;;9.90;99.90;;;;;;4901952;29;19927;-64
2024/04/04 04:35:46;;;;;;;;;;;9.90;99.90;;;;;;4914696;29;19927;-64
2024/04/04 04:38:12;;;;;;;;;;;9.90;99.90;;;;;;4914922;29;20302;-64
2024/04/04 04:40:40;;;;;;;;;;;9.90;99.90;;;;;;4914911;29;19926;-64
2024/04/04 04:43:06;;;;;;;;;;;9.90;99.90;;;;;;4927293;29;19931;-64
2024/04/04 04:45:32;;;;;;;;;;;10.00;99.90;;;;;;4925024;29;19938;-65
2024/04/04 04:47:58;;;;;;;;;;;10.00;99.90;;;;;;4912987;29;19927;-64
2024/04/04 04:50:24;;;;;;;;;;;10.00;99.90;;;;;;4899916;29;19931;-64
2024/04/04 04:52:49;;;;;;;;;;;10.10;99.90;;;;;;4915888;29;19937;-64
2024/04/04 04:55:15;;;;;;;;;;;10.10;99.90;;;;;;4917754;29;20455;-64
2024/04/04 04:57:42;;;;;;;;;;;10.10;99.90;;;;;;4930279;29;20403;-64
2024/04/04 05:00:11;;;;;;;;;;;10.10;99.90;;;;;;4915237;29;19927;-64
2024/04/04 05:02:38;;;;;;;;;;;10.10;99.90;;;;;;4916774;29;19933;-64
2024/04/04 05:05:14;;;;;;;;;;;10.10;99.90;;;;;;4908758;29;20333;-64
2024/04/04 05:07:41;;;;;;;;;;;10.10;99.90;;;;;;4888734;29;19939;-64
2024/04/04 05:10:10;;;;;;;;;;;10.00;99.90;;;;;;4915906;29;20327;-65
2024/04/04 05:12:35;;;;;;;;;;;10.00;99.90;;;;;;4926922;29;19927;-64
2024/04/04 05:15:01;;;;;;;;;;;9.90;99.90;;;;;;4916678;29;19935;-64
2024/04/04 05:17:27;;;;;;;;;;;9.90;99.90;;;;;;4913805;29;20404;-72
2024/04/04 05:19:53;;;;;;;;;;;9.90;99.90;;;;;;4900274;29;19927;-64
2024/04/04 05:22:19;;;;;;;;;;;9.90;99.90;;;;;;4912080;29;19931;-64
2024/04/04 05:24:44;;;;;;;;;;;9.90;99.90;;;;;;4918836;29;20330;-64
2024/04/04 05:27:10;;;;;;;;;;;10.00;99.90;;;;;;4916163;29;19933;-66
2024/04/04 05:29:36;;;;;;;;;;;10.00;99.90;;;;;;4916092;29;20306;-64
2024/04/04 05:32:02;;;;;;;;;;;10.00;99.90;;;;;;4913958;29;19974;-64
2024/04/04 05:34:28;;;;;;;;;;;10.00;99.90;;;;;;4928898;29;19934;-64
2024/04/04 05:36:54;;;;;;;;;;;10.00;99.90;;;;;;4912568;29;20014;-65
2024/04/04 05:39:19;;;;;;;;;;;10.00;99.90;;;;;;4913843;29;20387;-64
2024/04/04 05:41:48;;;;;;;;;;;10.10;99.90;;;;;;4943406;29;19934;-64
2024/04/04 05:44:14;;;;;;;;;;;10.10;99.90;;;;;;4911515;29;19931;-65
2024/04/04 05:46:40;;;;;;;;;;;10.10;99.90;;;;;;4926757;29;19931;-65
2024/04/04 05:49:07;;;;;;;;;;;10.20;99.90;;;;;;4913194;29;19931;-65
2024/04/04 05:51:33;;;;;;;;;;;10.20;99.90;;;;;;4918407;29;19950;-65
2024/04/04 05:53:59;;;;;;;;;;;10.30;99.90;;;;;;4925867;29;19927;-64
2024/04/04 05:56:25;;;;;;;;;;;10.30;99.90;;;;;;4905753;29;20408;-64
2024/04/04 05:58:51;;;;;;;;;;;10.30;99.90;;;;;;4910537;29;19931;-65
2024/04/04 06:01:17;;;;;;;;;;;10.40;99.90;;;;;;4915365;29;19927;-64
2024/04/04 06:03:43;;;;;;;;;;;10.40;99.90;;;;;;4930902;29;19985;-65
2024/04/04 06:06:12;;;;;;;;;;;10.40;99.90;;;;;;4928356;29;19926;-64
2024/04/04 06:08:38;;;;;;;;;;;10.40;99.90;;;;;;4901822;29;19934;-64
2024/04/04 06:11:04;;;;;;;;;;;10.40;99.90;;;;;;4917763;29;19952;-65
2024/04/04 06:13:30;;;;;;;;;;;10.40;99.90;;;;;;4927533;29;19954;-64
2024/04/04 06:15:56;;;;;;;;;;;10.40;99.90;;;;;;4918041;29;20399;-64
2024/04/04 06:18:22;;;;;;;;;;;10.40;99.90;;;;;;4918789;29;19930;-64
2024/04/04 06:20:48;;;;;;;;;;;10.40;99.90;;;;;;4930573;29;20387;-64
2024/04/04 06:23:14;;;;;;;;;;;10.30;99.90;;;;;;4916790;29;19934;-64
2024/04/04 06:25:40;;;;;;;;;;;10.40;99.90;;;;;;4920685;29;20318;-64
2024/04/04 06:28:06;;;;;;;;;;;10.30;99.90;;;;;;4919219;29;19931;-64
2024/04/04 06:30:32;;;;;;;;;;;10.30;99.90;;;;;;4918507;29;20434;-65
2024/04/04 06:32:58;;;;;;;;;;;10.30;99.90;;;;;;4931896;29;20288;-64
2024/04/04 06:35:24;;;;;;;;;;;10.30;99.90;;;;;;4917772;29;19931;-64
2024/04/04 06:37:50;;;;;;;;;;;10.40;99.90;;;;;;4934899;29;19927;-65
2024/04/04 06:40:16;;;;;;;;;;;10.40;99.90;;;;;;4931671;29;19982;-64
2024/04/04 06:42:42;;;;;;;;;;;10.50;99.90;;;;;;4919500;29;19931;-64
2024/04/04 06:45:08;;;;;;;;;;;10.60;99.90;;;;;;4923362;29;19934;-64
2024/04/04 06:47:36;;;;;;;;;;;10.80;99.90;;;;;;4918568;29;20398;-64
2024/04/04 06:50:01;;;;;;;;;;;10.90;99.90;;;;;;4919015;29;19934;-65
2024/04/04 06:52:27;;;;;;;;;;;11.00;99.90;;;;;;4911126;29;20364;-64
2024/04/04 06:54:53;;;;;;;;;;;11.00;99.90;;;;;;4921598;29;19927;-64
2024/04/04 06:57:19;;;;;;;;;;;11.10;99.90;;;;;;4918867;29;19931;-64
2024/04/04 06:59:45;;;;;;;;;;;11.20;99.90;;;;;;4924309;29;19930;-64
2024/04/04 07:02:11;;;;;;;;;;;11.20;99.90;;;;;;4918150;29;19935;-64
2024/04/04 07:04:37;;;;;;;;;;;11.20;99.90;;;;;;4925606;29;19927;-64
2024/04/04 07:07:04;;;;;;;;;;;11.30;99.90;;;;;;4925281;29;19957;-64
2024/04/04 07:09:30;;;;;;;;;;;11.30;99.90;;;;;;4926206;29;20316;-64
2024/04/04 07:11:55;;;;;;;;;;;11.30;99.90;;;;;;4928764;29;19934;-64
2024/04/04 07:14:21;;;;;;;;;;;11.40;99.90;;;;;;4920460;29;20399;-64
2024/04/04 07:16:47;;;;;;;;;;;11.40;99.90;;;;;;4902483;29;19931;-64
2024/04/04 07:19:13;;;;;;;;;;;11.40;99.90;;;;;;4920687;29;19931;-64
2024/04/04 07:21:39;;;;;;;;;;;11.40;99.90;;;;;;4925445;29;19931;-64
2024/04/04 07:24:05;;;;;;;;;;;11.40;99.90;;;;;;4914478;29;19931;-64
2024/04/04 07:26:31;;;;;;;;;;;11.50;99.90;;;;;;4911599;29;20570;-65
2024/04/04 07:28:57;;;;;;;;;;;11.70;99.90;;;;;;4924655;29;19931;-64
2024/04/04 07:31:23;;;;;;;;;;;11.70;99.90;;;;;;4903145;29;19931;-65
2024/04/04 07:33:49;;;;;;;;;;;11.80;99.90;;;;;;4917895;29;20414;-64
2024/04/04 07:36:15;;;;;;;;;;;11.80;99.90;;;;;;4917078;29;19973;-64
2024/04/04 07:38:41;;;;;;;;;;;11.80;99.90;;;;;;4930601;29;19928;-64
2024/04/04 07:41:07;;;;;;;;;;;11.90;99.90;;;;;;4916738;29;19927;-64
2024/04/04 07:43:33;;;;;;;;;;;12.00;99.90;;;;;;4919391;29;20299;-64
2024/04/04 07:46:01;;;;;;;;;;;12.10;99.90;;;;;;4924252;29;19931;-64
2024/04/04 07:48:27;;;;;;;;;;;12.10;99.90;;;;;;4926691;29;19935;-64
2024/04/04 07:50:53;;;;;;;;;;;12.20;99.90;;;;;;4931135;29;19948;-64
2024/04/04 07:53:19;;;;;;;;;;;12.30;99.90;;;;;;4914200;29;20684;-64
2024/04/04 07:55:45;;;;;;;;;;;12.40;99.90;;;;;;4899102;29;19930;-64
2024/04/04 07:58:11;;;;;;;;;;;12.60;99.90;;;;;;4916465;29;20351;-64
2024/04/04 08:00:37;;;;;;;;;;;12.70;99.90;;;;;;4916383;29;19931;-63
2024/04/04 08:03:03;;;;;;;;;;;12.80;99.90;;;;;;4918171;29;19934;-64
2024/04/04 08:05:31;;;;;;;;;;;13.00;99.90;;;;;;4916523;29;19927;-64
2024/04/04 08:07:57;;;;;;;;;;;13.20;99.90;;;;;;4919179;29;19957;-67
2024/04/04 08:10:23;;;;;;;;;;;13.40;99.90;;;;;;4915607;29;20322;-66
2024/04/04 08:12:49;;;;;;;;;;;13.50;99.90;;;;;;4927080;29;20419;-67
2024/04/04 08:15:15;;;;;;;;;;;13.80;99.90;;;;;;4914994;29;20400;-67
2024/04/04 08:17:41;;;;;;;;;;;13.90;99.90;;;;;;4916533;29;19931;-67
2024/04/04 08:20:14;;;;;;;;;;;14.10;99.90;;;;;;4916182;29;20493;-66
2024/04/04 08:22:51;;;;;;;;;;;14.20;99.90;;;;;;4915203;29;19931;-64
2024/04/04 08:25:16;;;;;;;;;;;14.30;99.90;;;;;;4915535;29;19938;-64
2024/04/04 08:27:44;;;;;;;;;;;14.40;99.90;;;;;;4904940;29;19978;-64
2024/04/04 08:30:11;;;;;;;;;;;14.40;99.90;;;;;;4915821;29;20395;-64
2024/04/04 08:32:37;;;;;;;;;;;14.40;99.90;;;;;;4901608;29;19954;-64
2024/04/04 08:35:06;;;;;;;;;;;14.50;99.90;;;;;;4915427;29;19935;-64
2024/04/04 08:37:33;;;;;;;;;;;14.50;99.90;;;;;;4909673;29;20327;-64
2024/04/04 08:39:59;;;;;;;;;;;14.50;99.90;;;;;;4916033;29;19931;-65
2024/04/04 08:42:26;;;;;;;;;;;14.30;99.90;;;;;;4916730;29;19937;-65
2024/04/04 08:44:52;;;;;;;;;;;14.10;99.90;;;;;;4916437;29;19955;-64
2024/04/04 08:47:18;;;;;;;;;;;14.00;99.90;;;;;;4915369;29;19990;-65
2024/04/04 08:49:46;;;;;;;;;;;14.00;99.90;;;;;;4929433;29;20455;-65
2024/04/04 08:52:13;;;;;;;;;;;14.00;99.90;;;;;;4899534;29;19935;-65
2024/04/04 08:54:39;;;;;;;;;;;14.00;99.90;;;;;;4912892;29;19938;-65
2024/04/04 08:57:05;;;;;;;;;;;14.10;99.90;;;;;;4914340;29;20536;-65
2024/04/04 08:59:31;;;;;;;;;;;14.10;99.90;;;;;;4914896;29;19989;-65
2024/04/04 09:01:57;;;;;;;;;;;14.10;99.90;;;;;;4911077;29;19931;-65
2024/04/04 09:04:27;;;;;;;;;;;14.10;99.90;;;;;;4916058;29;20442;-65
2024/04/04 09:06:53;;;;;;;;;;;14.20;99.90;;;;;;4914145;29;20367;-65
2024/04/04 09:09:19;;;;;;;;;;;14.30;99.90;;;;;;4912182;29;19938;-66
2024/04/04 09:11:45;;;;;;;;;;;14.30;99.90;;;;;;4929051;29;19949;-66
2024/04/04 09:14:12;;;;;;;;;;;14.40;99.90;;;;;;4914236;29;19930;-65
2024/04/04 09:16:44;;;;;;;;;;;14.30;99.90;;;;;;4917171;29;19930;-65
2024/04/04 09:19:14;;;;;;;;;;;14.30;99.90;;;;;;4915895;29;20390;-65
2024/04/04 09:21:44;;;;;;;;;;;14.40;99.90;;;;;;4926639;29;20014;-66
2024/04/04 09:24:10;;;;;;;;;;;14.30;99.90;;;;;;4917620;29;19938;-65
2024/04/04 09:26:37;;;;;;;;;;;14.30;99.90;;;;;;4929258;29;19933;-65
2024/04/04 09:29:06;;;;;;;;;;;14.40;99.90;;;;;;4913923;29;19930;-65
2024/04/04 09:31:36;;;;;;;;;;;14.30;99.90;;;;;;4918718;29;20315;-66
2024/04/04 09:34:02;;;;;;;;;;;14.40;99.90;;;;;;4923151;29;20307;-66
2024/04/04 09:36:29;;;;;;;;;;;14.40;99.90;;;;;;4927723;29;20434;-65
2024/04/04 09:38:59;;;;;;;;;;;14.30;99.90;;;;;;4934577;29;19938;-65
2024/04/04 09:41:29;;;;;;;;;;;14.30;99.90;;;;;;4922966;29;20554;-66
2024/04/04 09:43:57;;;;;;;;;;;14.30;99.90;;;;;;4921277;29;19948;-66
2024/04/04 09:46:24;;;;;;;;;;;14.30;99.90;;;;;;4921409;29;19927;-66
2024/04/04 09:48:51;;;;;;;;;;;14.30;99.90;;;;;;4932541;29;19927;-65
2024/04/04 09:51:17;;;;;;;;;;;14.30;99.90;;;;;;4929667;29;19952;-65
2024/04/04 09:53:44;;;;;;;;;;;14.30;99.90;;;;;;4921649;29;19934;-66
2024/04/04 09:56:11;;;;;;;;;;;14.40;99.90;;;;;;4919746;29;19934;-66
2024/04/04 09:58:37;;;;;;;;;;;14.50;99.90;;;;;;4921047;29;19934;-63
2024/04/04 10:01:16;;;;;;;;;;;14.50;99.90;;;;;;4919982;29;20359;-63
2024/04/04 10:03:48;;;;;;;;;;;14.50;99.90;;;;;;4918672;29;19930;-63
2024/04/04 10:06:33;;;;;;;;;;;14.50;99.90;;;;;;4920779;29;19937;-65
2024/04/04 10:08:59;;;;;;;;;;;14.50;99.90;;;;;;4920906;29;20025;-65
2024/04/04 10:11:33;;;;;;;;;;;14.60;99.90;;;;;;4919801;29;19985;-65
2024/04/04 10:14:00;;;;;;;;;;;14.70;99.90;;;;;;4921240;29;19931;-65
2024/04/04 10:16:27;;;;;;;;;;;14.90;99.90;;;;;;4933645;29;19938;-65
2024/04/04 10:18:56;;;;;;;;;;;14.90;99.90;;;;;;4919411;29;19933;-65
2024/04/04 10:21:25;;;;;;;;;;;15.00;99.90;;;;;;4920927;29;19986;-66
2024/04/04 10:23:53;;;;;;;;;;;15.00;99.90;;;;;;4922449;29;19927;-66
2024/04/04 10:26:19;;;;;;;;;;;15.10;99.90;;;;;;4921568;29;19931;-66
2024/04/04 10:28:48;;;;;;;;;;;15.10;99.90;;;;;;4918571;29;20019;-65
2024/04/04 10:31:14;;;;;;;;;;;15.00;99.90;;;;;;4921522;29;20454;-65
2024/04/04 10:33:40;;;;;;;;;;;14.90;99.90;;;;;;4916168;29;19931;-65
2024/04/04 10:36:07;;;;;;;;;;;14.90;99.90;;;;;;4920254;29;19930;-66
2024/04/04 10:38:34;;;;;;;;;;;14.90;99.90;;;;;;4920788;29;19927;-65
2024/04/04 10:41:00;;;;;;;;;;;14.80;99.90;;;;;;4931748;29;19930;-65
2024/04/04 10:43:26;;;;;;;;;;;14.80;99.90;;;;;;4918384;29;19994;-66
2024/04/04 10:45:53;;;;;;;;;;;14.80;99.90;;;;;;4923031;29;20046;-66
2024/04/04 10:48:19;;;;;;;;;;;14.90;99.90;;;;;;4914371;29;19934;-65
2024/04/04 10:50:45;;;;;;;;;;;14.90;99.90;;;;;;4915492;29;19926;-66
2024/04/04 10:53:11;;;;;;;;;;;14.90;99.90;;;;;;4908596;29;20517;-65
2024/04/04 10:55:37;;;;;;;;;;;14.80;99.90;;;;;;4910678;29;19931;-66
2024/04/04 10:58:06;;;;;;;;;;;14.80;99.90;;;;;;4901486;29;20025;-65
2024/04/04 11:00:35;;;;;;;;;;;14.90;99.90;;;;;;4930148;29;20315;-65
2024/04/04 11:03:01;;;;;;;;;;;15.00;99.90;;;;;;4926354;29;19930;-65
2024/04/04 11:05:27;;;;;;;;;;;15.10;99.90;;;;;;4915924;29;19930;-65
2024/04/04 11:08:01;;;;;;;;;;;15.10;99.90;;;;;;4930512;29;20017;-62
2024/04/04 11:10:27;;;;;;;;;;;15.10;99.90;;;;;;4915046;29;19982;-63
2024/04/04 11:12:53;;;;;;;;;;;15.10;99.90;;;;;;4919976;29;19927;-63
2024/04/04 11:15:19;;;;;;;;;;;15.10;99.90;;;;;;4917538;29;19934;-66
2024/04/04 11:17:45;;;;;;;;;;;15.00;99.90;;;;;;4920831;29;19934;-66
2024/04/04 11:20:17;;;;;;;;;;;15.00;99.90;;;;;;4919584;29;19927;-66
2024/04/04 11:22:43;;;;;;;;;;;15.10;99.90;;;;;;4926630;29;19986;-65
2024/04/04 11:25:09;;;;;;;;;;;15.10;99.90;;;;;;4904378;29;19927;-66
2024/04/04 11:27:36;;;;;;;;;;;15.20;99.90;;;;;;4924955;29;19927;-66
2024/04/04 11:30:03;;;;;;;;;;;15.30;99.90;;;;;;4924815;29;20455;-65
2024/04/04 11:32:30;;;;;;;;;;;15.50;99.90;;;;;;4901751;29;20010;-65
2024/04/04 11:34:56;;;;;;;;;;;15.70;99.90;;;;;;4924266;29;19927;-65
2024/04/04 11:37:24;;;;;;;;;;;16.00;99.90;;;;;;4919044;29;19930;-65
2024/04/04 11:39:50;;;;;;;;;;;16.20;99.90;;;;;;4923383;29;20384;-65
2024/04/04 11:42:17;;;;;;;;;;;16.30;99.90;;;;;;4931185;29;19931;-65
2024/04/04 11:44:45;;;;;;;;;;;16.50;99.90;;;;;;4918591;29;20391;-65
2024/04/04 11:47:11;;;;;;;;;;;16.50;99.90;;;;;;4922126;29;19926;-63
2024/04/04 11:49:38;;;;;;;;;;;16.50;99.90;;;;;;4924669;29;20403;-63
2024/04/04 11:52:04;;;;;;;;;;;16.30;99.90;;;;;;4926021;29;19930;-64
2024/04/04 11:54:30;;;;;;;;;;;16.30;99.90;;;;;;4909495;29;20000;-63
2024/04/04 11:56:55;;;;;;;;;;;16.20;99.90;;;;;;4913823;29;20459;-64
2024/04/04 11:59:22;;;;;;;;;;;16.20;99.90;;;;;;4929066;29;19931;-63
2024/04/04 12:01:48;;;;;;;;;;;16.10;99.90;;;;;;4926830;29;20013;-63
2024/04/04 12:04:14;;;;;;;;;;;16.10;99.90;;;;;;4901166;29;19937;-64
2024/04/04 12:06:40;;;;;;;;;;;16.00;99.90;;;;;;4925524;29;19931;-63
2024/04/04 12:09:09;;;;;;;;;;;16.00;99.90;;;;;;4914396;29;19927;-63
2024/04/04 12:11:36;;;;;;;;;;;16.00;99.90;;;;;;4912617;29;20347;-63
2024/04/04 12:14:02;;;;;;;;;;;15.90;99.90;;;;;;4912752;29;19942;-63
2024/04/04 12:16:31;;;;;;;;;;;15.90;99.90;;;;;;4916805;29;20877;-64
2024/04/04 12:21:44;;;;;;;;;;;16.00;99.90;;;;;;4908212;29;20287;-64
2024/04/04 12:24:12;;;;;;;;;;;15.90;99.90;;;;;;4917131;29;20413;-64
2024/04/04 12:26:38;;;;;;;;;;;15.90;99.90;;;;;;4920138;29;20300;-63
2024/04/04 12:29:04;;;;;;;;;;;15.80;99.90;;;;;;4916170;29;19962;-64
2024/04/04 12:31:30;;;;;;;;;;;15.80;99.90;;;;;;4914601;29;19931;-63
2024/04/04 12:33:56;;;;;;;;;;;15.80;99.90;;;;;;4917520;29;19927;-64
2024/04/04 12:36:22;;;;;;;;;;;15.80;99.90;;;;;;4929112;29;20379;-63
2024/04/04 12:38:48;;;;;;;;;;;15.80;99.90;;;;;;4901960;29;20005;-63
2024/04/04 12:41:13;;;;;;;;;;;15.80;99.90;;;;;;4915386;29;19931;-63
2024/04/04 12:43:39;;;;;;;;;;;15.80;99.90;;;;;;4915630;29;20314;-63
2024/04/04 12:46:05;;;;;;;;;;;15.70;99.90;;;;;;4911291;29;19927;-64
2024/04/04 12:48:31;;;;;;;;;;;15.70;99.90;;;;;;4927640;29;20300;-63
2024/04/04 12:50:58;;;;;;;;;;;15.70;99.90;;;;;;4914763;29;20360;-64
2024/04/04 12:53:24;;;;;;;;;;;15.70;99.90;;;;;;4923004;29;19927;-63
2024/04/04 12:55:50;;;;;;;;;;;15.70;99.90;;;;;;4928959;29;20563;-64
2024/04/04 12:58:15;;;;;;;;;;;15.70;99.90;;;;;;4912019;29;19927;-63
2024/04/04 13:00:42;;;;;;;;;;;15.70;99.90;;;;;;4913868;29;19935;-63
2024/04/04 13:03:08;;;;;;;;;;;15.60;99.90;;;;;;4915019;29;19927;-64
2024/04/04 13:05:34;;;;;;;;;;;15.60;99.90;;;;;;4904548;29;19934;-63
2024/04/04 13:08:01;;;;;;;;;;;15.60;99.90;;;;;;4898226;29;19930;-64
2024/04/04 13:10:27;;;;;;;;;;;15.50;99.90;;;;;;4929682;28;19938;-64
2024/04/04 13:12:52;;;;;;;;;;;15.40;99.90;;;;;;4915075;29;19985;-63
2024/04/04 13:15:18;;;;;;;;;;;15.30;99.90;;;;;;4919230;29;19926;-64
2024/04/04 13:17:44;;;;;;;;;;;15.10;99.90;;;;;;4913788;29;19933;-63
2024/04/04 13:20:10;;;;;;;;;;;15.00;99.90;;;;;;4909216;29;19982;-64
2024/04/04 13:22:36;;;;;;;;;;;14.90;99.90;;;;;;4914265;29;20398;-63
2024/04/04 13:25:02;;;;;;;;;;;14.70;99.90;;;;;;4916030;29;19934;-64
2024/04/04 13:27:28;;;;;;;;;;;14.60;99.90;;;;;;4911773;29;19935;-63
2024/04/04 13:29:54;;;;;;;;;;;14.50;99.90;;;;;;4924527;29;19990;-63
2024/04/04 13:32:22;;;;;;;;;;;14.50;99.90;;;;;;4917574;29;20296;-63
2024/04/04 13:34:48;;;;;;;;;;;14.40;99.90;;;;;;4929070;29;19982;-63
2024/04/04 13:37:14;;;;;;;;;;;14.40;99.90;;;;;;4913922;29;19926;-63
2024/04/04 13:39:40;;;;;;;;;;;14.40;99.90;;;;;;4929226;29;19931;-63
2024/04/04 13:42:06;;;;;;;;;;;14.40;99.90;;;;;;4918020;29;19938;-64
2024/04/04 13:44:33;;;;;;;;;;;14.50;99.90;;;;;;4898609;29;19931;-63
2024/04/04 13:47:01;;;;;;;;;;;14.60;99.90;;;;;;4916199;29;20315;-64
2024/04/04 13:49:27;;;;;;;;;;;14.80;99.90;;;;;;4886418;29;19927;-64
2024/04/04 13:51:54;;;;;;;;;;;15.00;99.90;;;;;;4897440;29;19931;-63
2024/04/04 13:54:20;;;;;;;;;;;15.20;99.90;;;;;;4912663;29;19931;-63
2024/04/04 13:56:46;;;;;;;;;;;15.30;99.90;;;;;;4907894;29;19927;-64
2024/04/04 13:59:12;;;;;;;;;;;15.40;99.90;;;;;;4911853;29;19930;-64
2024/04/04 14:01:38;;;;;;;;;;;15.50;99.90;;;;;;4915923;29;19927;-64
2024/04/04 14:04:04;;;;;;;;;;;15.60;99.90;;;;;;4916255;29;20359;-63
2024/04/04 14:06:30;;;;;;;;;;;15.70;99.90;;;;;;4927746;29;20526;-64
2024/04/04 14:08:56;;;;;;;;;;;15.80;99.90;;;;;;4925205;29;19957;-64
2024/04/04 14:11:22;;;;;;;;;;;15.70;99.90;;;;;;4917078;29;19986;-64
2024/04/04 14:13:49;;;;;;;;;;;15.70;99.90;;;;;;4915603;29;20034;-64
2024/04/04 14:16:15;;;;;;;;;;;15.60;99.90;;;;;;4917018;29;19927;-64
2024/04/04 14:18:41;;;;;;;;;;;15.50;99.90;;;;;;4917216;29;19927;-64